Time;durP1;ratioP1;P1;durP2;ratioP2;P2;SDS_P1;SDS_P2;PMS_P1;PMS_P2;Temp;Humidity;BMP_temperature;BMP_pressure;BME280_temperature;BME280_humidity;BME280_pressure;Samples;Min_cycle;Max_cycle;Signal;HPM_P1;HPM_P2
2022/11/23 00:01:22;;;;;;;3.72;2.80;;;5.90;99.90;;;;;;5071934;28;20200;-63
2022/11/23 00:03:51;;;;;;;11.23;3.60;;;5.90;99.90;;;;;;5071235;28;20216;-63
2022/11/23 00:06:20;;;;;;;6.88;2.90;;;5.80;99.90;;;;;;5071100;28;20686;-63
2022/11/23 00:08:51;;;;;;;10.77;2.90;;;5.80;99.90;;;;;;5071536;28;20203;-64
2022/11/23 00:11:20;;;;;;;7.88;3.65;;;5.80;99.90;;;;;;5072129;28;20216;-64
2022/11/23 00:13:48;;;;;;;6.18;4.13;;;5.90;99.90;;;;;;5072696;28;20200;-65
2022/11/23 00:16:18;;;;;;;4.50;2.65;;;5.80;99.90;;;;;;5072013;28;20192;-64
2022/11/23 00:18:46;;;;;;;7.82;2.30;;;5.90;99.90;;;;;;5071367;28;20579;-64
2022/11/23 00:21:15;;;;;;;5.55;2.50;;;5.80;99.90;;;;;;5063607;28;20203;-63
2022/11/23 00:23:44;;;;;;;6.70;2.70;;;5.80;99.90;;;;;;5052391;28;20516;-64
2022/11/23 00:26:15;;;;;;;4.75;2.40;;;5.70;99.90;;;;;;5054594;28;20208;-63
2022/11/23 00:28:43;;;;;;;8.45;3.05;;;5.70;99.90;;;;;;5068729;28;20713;-63
2022/11/23 00:31:13;;;;;;;4.80;2.67;;;5.60;99.90;;;;;;5066555;28;20543;-64
2022/11/23 00:33:41;;;;;;;3.50;3.08;;;5.60;99.90;;;;;;5071411;28;20286;-63
2022/11/23 00:36:13;;;;;;;8.23;2.80;;;5.60;99.90;;;;;;5054096;28;20212;-64
2022/11/23 00:38:42;;;;;;;5.88;2.40;;;5.60;99.90;;;;;;5066394;28;20204;-63
2022/11/23 00:41:12;;;;;;;4.25;2.40;;;5.50;99.90;;;;;;5071418;28;20200;-63
2022/11/23 00:43:41;;;;;;;7.72;2.58;;;5.50;99.90;;;;;;5072106;28;20294;-62
2022/11/23 00:46:13;;;;;;;6.85;3.45;;;5.50;99.90;;;;;;5070692;28;20204;-63
2022/11/23 00:48:43;;;;;;;8.23;3.25;;;5.50;99.90;;;;;;5072826;28;20188;-64
2022/11/23 00:51:13;;;;;;;15.45;4.05;;;5.50;99.90;;;;;;5067890;28;20200;-64
2022/11/23 00:53:41;;;;;;;8.73;2.95;;;5.50;99.90;;;;;;5055320;28;20258;-66
2022/11/23 00:56:09;;;;;;;12.35;3.42;;;5.40;99.90;;;;;;5059040;28;20201;-65
2022/11/23 00:58:38;;;;;;;4.57;3.10;;;5.40;99.90;;;;;;5052573;28;20211;-64
2022/11/23 01:01:09;;;;;;;4.13;2.08;;;5.40;99.90;;;;;;5070512;28;20591;-63
2022/11/23 01:03:40;;;;;;;8.10;2.88;;;5.50;99.90;;;;;;5071128;28;20215;-64
2022/11/23 01:06:11;;;;;;;11.88;2.75;;;5.50;99.90;;;;;;5070335;28;20191;-63
2022/11/23 01:08:40;;;;;;;8.02;3.10;;;5.50;99.90;;;;;;5072629;28;20196;-64
2022/11/23 01:11:10;;;;;;;6.70;3.15;;;5.50;99.90;;;;;;5069512;28;20231;-65
2022/11/23 01:13:39;;;;;;;6.30;2.83;;;5.50;99.90;;;;;;5051684;28;20185;-63
2022/11/23 01:16:13;;;;;;;3.20;2.45;;;5.50;99.90;;;;;;5050876;28;20205;-64
2022/11/23 01:18:41;;;;;;;9.10;2.38;;;5.60;99.90;;;;;;5051842;28;20818;-64
2022/11/23 01:21:09;;;;;;;3.05;2.40;;;5.60;99.90;;;;;;5059810;28;20529;-65
2022/11/23 01:23:40;;;;;;;6.22;3.30;;;5.70;99.90;;;;;;5053547;28;20216;-64
2022/11/23 01:26:09;;;;;;;10.43;3.03;;;5.70;99.90;;;;;;5054335;28;20205;-63
2022/11/23 01:28:39;;;;;;;4.53;2.70;;;5.70;99.90;;;;;;5053308;28;20305;-63
2022/11/23 01:31:10;;;;;;;8.10;2.70;;;5.70;99.90;;;;;;5055355;28;20212;-63
2022/11/23 01:33:38;;;;;;;6.15;2.75;;;5.70;99.90;;;;;;5055879;28;20223;-62
2022/11/23 01:36:11;;;;;;;6.38;2.70;;;5.80;99.90;;;;;;5055576;28;20303;-63
2022/11/23 01:38:39;;;;;;;7.50;2.38;;;5.80;99.90;;;;;;5055685;28;20213;-63
2022/11/23 01:41:08;;;;;;;5.32;2.55;;;5.80;99.90;;;;;;5054721;28;20208;-63
2022/11/23 01:43:36;;;;;;;3.05;2.58;;;5.90;99.90;;;;;;5055358;28;20228;-63
2022/11/23 01:46:05;;;;;;;5.60;2.60;;;5.90;99.90;;;;;;5055949;28;20204;-64
2022/11/23 01:48:38;;;;;;;5.72;2.20;;;5.90;99.90;;;;;;5064604;28;20658;-62
2022/11/23 01:51:10;;;;;;;10.43;2.83;;;5.90;99.90;;;;;;5075581;28;20188;-64
2022/11/23 01:53:39;;;;;;;4.32;2.50;;;5.90;99.90;;;;;;5074064;28;20627;-64
2022/11/23 01:56:10;;;;;;;4.78;2.60;;;5.90;99.90;;;;;;5073627;28;20207;-62
2022/11/23 01:58:56;;;;;;;5.65;2.67;;;5.90;99.90;;;;;;5055173;28;20242;-63
2022/11/23 02:01:24;;;;;;;6.18;2.40;;;6.00;99.90;;;;;;5071966;28;20203;-63
2022/11/23 02:03:55;;;;;;;6.53;2.65;;;6.10;99.90;;;;;;5059029;28;20225;-63
2022/11/23 02:06:23;;;;;;;11.43;2.97;;;6.10;99.90;;;;;;5066545;28;20634;-63
2022/11/23 02:08:52;;;;;;;4.95;2.50;;;6.10;99.90;;;;;;5055439;28;20200;-62
2022/11/23 02:11:21;;;;;;;5.90;2.40;;;6.10;99.90;;;;;;5063323;28;20590;-63
2022/11/23 02:13:51;;;;;;;5.32;2.25;;;6.10;99.90;;;;;;5075333;28;20199;-63
2022/11/23 02:16:19;;;;;;;4.38;1.75;;;6.10;99.90;;;;;;5074847;28;20212;-63
2022/11/23 02:18:49;;;;;;;11.55;2.80;;;6.10;99.90;;;;;;5075525;28;20200;-63
2022/11/23 02:21:22;;;;;;;7.60;2.83;;;6.10;99.90;;;;;;5074717;28;20188;-63
2022/11/23 02:23:57;;;;;;;5.88;2.10;;;6.10;99.90;;;;;;5064424;28;20220;-64
2022/11/23 02:26:28;;;;;;;5.18;2.92;;;6.10;99.90;;;;;;5054502;28;20573;-63
2022/11/23 02:29:01;;;;;;;6.95;2.50;;;6.00;99.90;;;;;;5054914;28;20240;-63
2022/11/23 02:31:31;;;;;;;6.95;3.05;;;6.00;99.90;;;;;;5057782;28;20204;-63
2022/11/23 02:33:59;;;;;;;8.35;2.63;;;6.00;99.90;;;;;;5053976;28;20201;-63
2022/11/23 02:36:35;;;;;;;3.95;2.20;;;6.00;99.90;;;;;;5053086;28;20212;-63
2022/11/23 02:39:10;;;;;;;5.38;2.60;;;6.00;99.90;;;;;;5054704;28;20207;-63
2022/11/23 02:41:41;;;;;;;9.73;2.38;;;6.00;99.90;;;;;;5054400;28;20184;-63
2022/11/23 02:44:21;;;;;;;6.13;2.45;;;6.00;99.90;;;;;;5060253;28;20212;-63
2022/11/23 02:46:50;;;;;;;8.55;2.33;;;6.00;99.90;;;;;;5053756;28;20191;-64
2022/11/23 02:49:18;;;;;;;8.23;2.58;;;6.00;99.90;;;;;;5074575;28;20208;-64
2022/11/23 02:51:46;;;;;;;13.35;2.40;;;6.00;99.90;;;;;;5074151;28;20204;-64
2022/11/23 02:54:14;;;;;;;7.40;2.70;;;6.00;99.90;;;;;;5065862;28;20215;-64
2022/11/23 02:56:43;;;;;;;5.50;2.20;;;6.00;99.90;;;;;;5061246;28;20200;-64
2022/11/23 02:59:11;;;;;;;2.65;2.00;;;6.00;99.90;;;;;;5056242;28;20226;-64
2022/11/23 03:01:39;;;;;;;10.70;2.80;;;6.00;99.90;;;;;;5072976;28;20200;-64
2022/11/23 03:04:08;;;;;;;9.02;2.25;;;6.00;99.90;;;;;;5063803;28;20223;-64
2022/11/23 03:06:36;;;;;;;7.80;2.97;;;6.00;99.90;;;;;;5070696;28;20208;-64
2022/11/23 03:09:04;;;;;;;3.30;2.30;;;6.00;99.90;;;;;;5073608;28;20265;-65
2022/11/23 03:11:33;;;;;;;4.10;2.38;;;6.00;99.90;;;;;;5072408;28;20216;-63
2022/11/23 03:14:02;;;;;;;3.03;2.30;;;6.10;99.90;;;;;;5063877;28;20197;-63
2022/11/23 03:16:33;;;;;;;3.55;2.00;;;6.10;99.90;;;;;;5052748;28;20208;-63
2022/11/23 03:19:02;;;;;;;12.55;2.67;;;6.00;99.90;;;;;;5069133;28;20196;-63
2022/11/23 03:21:31;;;;;;;8.95;2.70;;;6.10;99.90;;;;;;5052366;28;20636;-64
2022/11/23 03:24:05;;;;;;;3.40;1.80;;;6.10;99.90;;;;;;5059044;28;20699;-65
2022/11/23 03:26:33;;;;;;;5.82;2.90;;;6.10;99.90;;;;;;5070041;28;20200;-64
2022/11/23 03:29:10;;;;;;;7.95;2.10;;;6.10;99.90;;;;;;5071889;28;20243;-63
2022/11/23 03:31:40;;;;;;;14.65;8.18;;;6.10;99.90;;;;;;5071906;28;20213;-63
2022/11/23 03:34:12;;;;;;;12.82;4.82;;;6.10;99.90;;;;;;5071916;28;20184;-63
2022/11/23 03:36:41;;;;;;;15.32;6.40;;;6.10;99.90;;;;;;5065800;28;20652;-63
2022/11/23 03:39:10;;;;;;;7.00;3.58;;;6.10;99.90;;;;;;5052162;28;20688;-63
2022/11/23 03:41:56;;;;;;;8.50;5.63;;;6.10;99.90;;;;;;5053217;28;20199;-63
2022/11/23 03:44:29;;;;;;;5.93;2.75;;;6.10;99.90;;;;;;5052402;28;20213;-65
2022/11/23 03:46:58;;;;;;;6.25;2.15;;;6.10;99.90;;;;;;5060096;28;20196;-64
2022/11/23 03:49:27;;;;;;;3.95;2.80;;;6.10;99.90;;;;;;5051800;28;20555;-64
2022/11/23 03:51:55;;;;;;;3.00;2.40;;;6.10;99.90;;;;;;5056203;28;20195;-63
2022/11/23 03:54:23;;;;;;;8.52;3.17;;;6.10;99.90;;;;;;5065231;28;20197;-63
2022/11/23 03:56:51;;;;;;;6.88;3.10;;;6.10;99.90;;;;;;5059502;28;20191;-63
2022/11/23 03:59:19;;;;;;;3.85;2.60;;;6.10;99.90;;;;;;5071135;28;20196;-64
2022/11/23 04:01:48;;;;;;;6.82;2.22;;;6.00;99.90;;;;;;5056370;28;20224;-64
2022/11/23 04:04:22;;;;;;;7.15;3.20;;;6.00;99.90;;;;;;5052481;28;20284;-64
2022/11/23 04:07:02;;;;;;;7.65;3.35;;;6.00;99.90;;;;;;5057255;28;20203;-64
2022/11/23 04:09:34;;;;;;;4.15;1.90;;;6.00;99.90;;;;;;5051183;28;20201;-64
2022/11/23 04:12:05;;;;;;;7.15;2.83;;;6.00;99.90;;;;;;5061799;28;20230;-65
2022/11/23 04:14:35;;;;;;;7.13;3.72;;;6.00;99.90;;;;;;5051462;28;20201;-64
2022/11/23 04:17:04;;;;;;;9.48;3.15;;;6.00;99.90;;;;;;5052981;28;20216;-64
2022/11/23 04:19:32;;;;;;;10.32;4.13;;;6.00;99.90;;;;;;5051667;28;20200;-64
2022/11/23 04:22:00;;;;;;;10.55;3.15;;;6.10;99.90;;;;;;5066948;28;20199;-65
2022/11/23 04:24:31;;;;;;;10.27;2.85;;;6.10;99.90;;;;;;5054775;28;20212;-64
2022/11/23 04:27:02;;;;;;;6.05;3.40;;;6.10;99.90;;;;;;5051905;28;20197;-64
2022/11/23 04:29:30;;;;;;;13.05;4.00;;;6.20;99.90;;;;;;5050512;28;20871;-63
2022/11/23 04:31:58;;;;;;;3.50;2.50;;;6.20;99.90;;;;;;5059162;28;20200;-63
2022/11/23 04:34:28;;;;;;;5.05;2.42;;;6.10;99.90;;;;;;5070869;28;20221;-64
2022/11/23 04:36:55;;;;;;;12.43;2.55;;;6.00;99.90;;;;;;5071803;28;20196;-64
2022/11/23 04:39:30;;;;;;;7.75;3.17;;;6.00;99.90;;;;;;5070781;28;20230;-64
2022/11/23 04:42:12;;;;;;;5.25;2.22;;;6.00;99.90;;;;;;5071257;28;20649;-63
2022/11/23 04:44:46;;;;;;;4.43;2.60;;;6.00;99.90;;;;;;5054237;28;20212;-63
2022/11/23 04:47:14;;;;;;;6.97;2.60;;;6.00;99.90;;;;;;5071726;28;20221;-66
2022/11/23 04:49:44;;;;;;;3.08;2.15;;;6.00;99.90;;;;;;5070180;28;20200;-64
2022/11/23 04:52:11;;;;;;;8.15;3.10;;;6.00;99.90;;;;;;5072820;28;20223;-64
2022/11/23 04:54:45;;;;;;;5.88;2.50;;;6.00;99.90;;;;;;5070734;28;20207;-64
2022/11/23 04:57:13;;;;;;;7.85;3.60;;;6.00;99.90;;;;;;5071422;28;20203;-64
2022/11/23 04:59:43;;;;;;;6.95;2.90;;;6.00;99.90;;;;;;5070281;28;20204;-64
2022/11/23 05:02:11;;;;;;;10.77;3.50;;;6.00;99.90;;;;;;5071183;28;20208;-64
2022/11/23 05:04:59;;;;;;;6.22;3.15;;;6.00;99.90;;;;;;5063830;28;20213;-65
2022/11/23 05:07:30;;;;;;;5.15;3.17;;;5.90;99.90;;;;;;5054512;28;20559;-62
2022/11/23 05:10:03;;;;;;;7.63;2.53;;;5.90;99.90;;;;;;5061552;28;20195;-62
2022/11/23 05:12:32;;;;;;;8.25;2.75;;;5.90;99.90;;;;;;5055541;28;20220;-65
2022/11/23 05:15:02;;;;;;;2.85;2.10;;;5.80;99.90;;;;;;5060892;28;20219;-64
2022/11/23 05:17:35;;;;;;;7.35;2.97;;;5.80;99.90;;;;;;5067014;28;20270;-64
2022/11/23 05:20:08;;;;;;;7.85;2.20;;;5.70;99.90;;;;;;5058825;28;20183;-64
2022/11/23 05:22:39;;;;;;;6.85;2.35;;;5.70;99.90;;;;;;5067602;28;20192;-64
2022/11/23 05:25:10;;;;;;;12.80;3.50;;;5.60;99.90;;;;;;5061554;28;20209;-63
2022/11/23 05:27:39;;;;;;;6.53;2.10;;;5.60;99.90;;;;;;5050268;28;20660;-64
2022/11/23 05:30:09;;;;;;;7.45;2.47;;;5.60;99.90;;;;;;5059119;28;20187;-64
2022/11/23 05:32:40;;;;;;;4.25;2.13;;;5.50;99.90;;;;;;5061797;28;20663;-65
2022/11/23 05:35:10;;;;;;;5.95;2.67;;;5.50;99.90;;;;;;5062592;28;20199;-63
2022/11/23 05:37:39;;;;;;;6.85;3.25;;;5.50;99.90;;;;;;5063304;28;20196;-63
2022/11/23 05:40:11;;;;;;;8.90;3.05;;;5.40;99.90;;;;;;5053222;28;20189;-65
2022/11/23 05:42:39;;;;;;;8.15;3.17;;;5.40;99.90;;;;;;5053938;28;20204;-64
2022/11/23 05:45:14;;;;;;;3.33;2.20;;;5.40;99.90;;;;;;5070608;28;20208;-64
2022/11/23 05:47:51;;;;;;;8.93;3.20;;;5.40;99.90;;;;;;5058386;28;20184;-64
2022/11/23 05:50:27;;;;;;;7.32;2.90;;;5.40;99.90;;;;;;5070303;28;20199;-64
2022/11/23 05:53:15;;;;;;;8.07;3.45;;;5.40;99.90;;;;;;5070370;28;20200;-65
2022/11/23 05:55:46;;;;;;;7.40;2.70;;;5.40;99.90;;;;;;5070483;28;20191;-65
2022/11/23 05:58:14;;;;;;;9.73;2.85;;;5.40;99.90;;;;;;5068708;28;20659;-64
2022/11/23 06:00:43;;;;;;;4.80;3.05;;;5.50;99.90;;;;;;5069890;28;20204;-65
2022/11/23 06:03:11;;;;;;;5.35;2.50;;;5.50;99.90;;;;;;5069644;28;20299;-64
2022/11/23 06:05:40;;;;;;;3.38;2.10;;;5.50;99.90;;;;;;5069341;28;20211;-64
2022/11/23 06:08:08;;;;;;;7.75;3.67;;;5.40;99.90;;;;;;5069347;28;20743;-63
2022/11/23 06:10:36;;;;;;;5.47;2.22;;;5.40;99.90;;;;;;5071560;28;20196;-63
2022/11/23 06:13:04;;;;;;;9.50;2.83;;;5.30;99.90;;;;;;5071062;28;20200;-64
2022/11/23 06:15:33;;;;;;;10.00;2.55;;;5.30;99.90;;;;;;5061427;28;20230;-64
2022/11/23 06:18:01;;;;;;;5.00;3.28;;;5.20;99.90;;;;;;5065643;28;20274;-64
2022/11/23 06:20:37;;;;;;;5.10;3.17;;;5.20;99.90;;;;;;5067926;28;20256;-64
2022/11/23 06:23:06;;;;;;;6.03;2.90;;;5.10;99.90;;;;;;5074230;28;20558;-64
2022/11/23 06:25:37;;;;;;;6.95;3.15;;;5.10;99.90;;;;;;5071986;28;20238;-64
2022/11/23 06:28:15;;;;;;;4.97;3.10;;;5.00;99.90;;;;;;5057025;28;20231;-63
2022/11/23 06:30:56;;;;;;;10.88;6.40;;;5.00;99.90;;;;;;5074209;28;20594;-63
2022/11/23 06:36:43;;;;;;;24.33;9.82;;;5.00;99.90;;;;;;5072086;28;20195;-64
2022/11/23 06:39:28;;;;;;;11.77;6.50;;;4.90;99.90;;;;;;5070667;28;20622;-65
2022/11/23 06:41:59;;;;;;;7.38;4.43;;;4.80;99.90;;;;;;5066921;28;20188;-65
2022/11/23 06:44:27;;;;;;;17.45;6.20;;;4.70;99.90;;;;;;5060283;28;20212;-65
2022/11/23 06:46:55;;;;;;;14.40;6.50;;;4.70;99.90;;;;;;5062954;28;20768;-65
2022/11/23 06:49:25;;;;;;;40.83;17.15;;;4.70;99.90;;;;;;5060105;28;20205;-65
2022/11/23 06:52:13;;;;;;;40.80;21.73;;;4.70;99.90;;;;;;5062556;28;20184;-64
2022/11/23 06:54:42;;;;;;;20.00;12.30;;;4.70;99.90;;;;;;5062488;28;20559;-65
2022/11/23 06:57:11;;;;;;;25.00;12.25;;;4.70;99.90;;;;;;5057755;28;20466;-65
2022/11/23 06:59:39;;;;;;;23.20;12.27;;;4.70;99.90;;;;;;5057647;28;20204;-66
2022/11/23 07:02:09;;;;;;;31.95;16.30;;;4.60;99.90;;;;;;5092548;28;20571;-65
2022/11/23 07:04:37;;;;;;;31.25;19.70;;;4.60;99.90;;;;;;5094197;28;20199;-65
2022/11/23 07:07:10;;;;;;;20.25;13.32;;;4.60;99.90;;;;;;5093866;28;20211;-65
2022/11/23 07:09:46;;;;;;;32.40;16.92;;;4.60;99.90;;;;;;5077323;28;20184;-65
2022/11/23 07:12:22;;;;;;;16.00;8.68;;;4.60;99.90;;;;;;5068163;28;20228;-65
2022/11/23 07:14:50;;;;;;;10.57;7.00;;;4.60;99.90;;;;;;5070955;28;20204;-64
2022/11/23 07:17:18;;;;;;;18.40;10.40;;;4.50;99.90;;;;;;5054267;28;20188;-65
2022/11/23 07:19:47;;;;;;;19.48;11.15;;;4.50;99.90;;;;;;5054778;28;20203;-65
2022/11/23 07:22:16;;;;;;;22.92;12.70;;;4.50;99.90;;;;;;5052893;28;20213;-65
2022/11/23 07:24:44;;;;;;;23.23;14.25;;;4.60;99.90;;;;;;5055853;28;20197;-64
2022/11/23 07:27:13;;;;;;;10.05;7.25;;;4.50;99.90;;;;;;5063058;28;20205;-65
2022/11/23 07:29:41;;;;;;;10.63;6.68;;;4.50;99.90;;;;;;5056581;28;20225;-65
2022/11/23 07:32:09;;;;;;;7.13;4.80;;;4.60;99.90;;;;;;5067752;28;20200;-65
2022/11/23 07:34:39;;;;;;;15.50;5.00;;;4.60;99.90;;;;;;5062666;28;20207;-66
2022/11/23 07:37:13;;;;;;;27.33;13.95;;;4.60;99.90;;;;;;5062294;28;20180;-65
2022/11/23 07:39:41;;;;;;;6.80;4.70;;;4.60;99.90;;;;;;5065736;28;20200;-66
2022/11/23 07:42:09;;;;;;;9.63;5.38;;;4.70;99.90;;;;;;5063004;28;20188;-65
2022/11/23 07:44:41;;;;;;;15.23;4.88;;;4.70;99.90;;;;;;5064977;28;20207;-66
2022/11/23 07:47:11;;;;;;;11.95;5.88;;;4.80;99.90;;;;;;5056234;28;20217;-64
2022/11/23 07:49:39;;;;;;;13.38;7.35;;;4.90;99.90;;;;;;5064499;28;20703;-64
2022/11/23 07:52:32;;;;;;;10.30;4.05;;;4.80;99.90;;;;;;5075219;28;20576;-65
2022/11/23 07:55:06;;;;;;;6.32;3.78;;;4.90;99.90;;;;;;5069451;28;20214;-66
2022/11/23 07:57:34;;;;;;;16.50;3.78;;;4.90;99.90;;;;;;5061836;28;20241;-66
2022/11/23 08:00:08;;;;;;;6.10;3.83;;;5.00;99.90;;;;;;5068311;28;20558;-66
2022/11/23 08:02:45;;;;;;;9.65;5.35;;;5.00;99.90;;;;;;5069787;28;20670;-66
2022/11/23 08:05:12;;;;;;;11.02;3.85;;;5.10;99.90;;;;;;5061774;28;20249;-66
2022/11/23 08:07:41;;;;;;;11.98;5.10;;;5.10;99.90;;;;;;5055132;28;20217;-65
2022/11/23 08:10:09;;;;;;;32.95;20.08;;;5.20;99.90;;;;;;5058361;28;20196;-64
2022/11/23 08:12:37;;;;;;;24.85;11.70;;;5.30;99.90;;;;;;5053484;28;20274;-64
2022/11/23 08:15:08;;;;;;;16.35;8.90;;;5.30;99.90;;;;;;5057092;28;20197;-65
2022/11/23 08:17:35;;;;;;;11.90;5.32;;;5.40;99.90;;;;;;5061458;28;20563;-65
2022/11/23 08:20:04;;;;;;;16.40;10.98;;;5.50;99.90;;;;;;5051456;28;20319;-64
2022/11/23 08:22:32;;;;;;;12.98;8.95;;;5.60;99.90;;;;;;5051522;28;20204;-65
2022/11/23 08:25:00;;;;;;;9.90;7.53;;;5.60;99.90;;;;;;5052121;28;20193;-65
2022/11/23 08:27:28;;;;;;;7.25;5.90;;;5.70;99.90;;;;;;5051675;28;20219;-64
2022/11/23 08:29:55;;;;;;;8.05;6.60;;;5.80;99.90;;;;;;5052843;28;20243;-65
2022/11/23 08:32:25;;;;;;;9.90;3.88;;;5.90;99.90;;;;;;5052080;28;20204;-64
2022/11/23 08:34:53;;;;;;;8.45;6.20;;;6.00;99.90;;;;;;5051757;28;20572;-64
2022/11/23 08:37:21;;;;;;;7.30;4.80;;;6.10;99.90;;;;;;5051445;28;20200;-64
2022/11/23 08:39:48;;;;;;;8.00;5.20;;;6.20;99.90;;;;;;5068243;28;20204;-65
2022/11/23 08:42:16;;;;;;;3.63;3.03;;;6.20;99.90;;;;;;5065744;28;20671;-65
2022/11/23 08:44:44;;;;;;;6.90;3.08;;;6.30;99.90;;;;;;5059269;28;20205;-64
2022/11/23 08:47:12;;;;;;;7.55;2.97;;;6.30;99.90;;;;;;5064398;28;20212;-65
2022/11/23 08:49:41;;;;;;;4.68;2.60;;;6.40;99.90;;;;;;5056171;28;20201;-64
2022/11/23 08:52:09;;;;;;;5.03;2.80;;;6.40;99.90;;;;;;5064901;28;20196;-65
2022/11/23 08:54:38;;;;;;;4.20;2.40;;;6.40;99.90;;;;;;5057887;28;20650;-65
2022/11/23 08:57:06;;;;;;;8.40;2.40;;;6.50;99.90;;;;;;5052057;28;20200;-65
2022/11/23 08:59:34;;;;;;;4.35;2.05;;;6.60;99.90;;;;;;5067184;28;20200;-65
2022/11/23 09:02:02;;;;;;;4.25;2.63;;;6.70;99.90;;;;;;5061553;28;20204;-65
2022/11/23 09:04:29;;;;;;;3.47;2.50;;;6.70;99.90;;;;;;5067086;28;20247;-67
2022/11/23 09:06:59;;;;;;;10.95;2.60;;;6.80;99.90;;;;;;5062848;28;20674;-65
2022/11/23 09:09:27;;;;;;;6.00;2.38;;;6.80;99.90;;;;;;5052623;28;20211;-64
2022/11/23 09:11:54;;;;;;;4.60;2.55;;;6.90;99.90;;;;;;5052633;28;20212;-65
2022/11/23 09:14:22;;;;;;;3.33;2.20;;;7.00;99.90;;;;;;5052084;28;20200;-64
2022/11/23 09:16:51;;;;;;;3.22;1.80;;;7.10;99.90;;;;;;5053250;28;20196;-65
2022/11/23 09:19:29;;;;;;;2.22;2.13;;;7.20;99.90;;;;;;5060768;28;20199;-65
2022/11/23 09:21:59;;;;;;;10.68;2.80;;;7.30;99.90;;;;;;5060799;28;20271;-65
2022/11/23 09:24:27;;;;;;;8.63;2.88;;;7.20;99.90;;;;;;5051804;28;20633;-65
2022/11/23 09:26:57;;;;;;;10.07;3.30;;;7.30;99.90;;;;;;5054674;28;20208;-65
2022/11/23 09:29:25;;;;;;;12.10;2.92;;;7.30;99.90;;;;;;5051451;28;20244;-65
2022/11/23 09:31:53;;;;;;;10.00;3.35;;;7.30;99.90;;;;;;5058126;28;20199;-64
2022/11/23 09:34:31;;;;;;;3.50;2.38;;;7.40;99.90;;;;;;5053069;28;20204;-65
2022/11/23 09:37:24;;;;;;;6.50;3.55;;;7.40;99.90;;;;;;5054460;28;20851;-66
2022/11/23 09:40:38;;;;;;;4.95;3.20;;;7.50;99.90;;;;;;5068747;28;20198;-64
2022/11/23 09:43:21;;;;;;;7.50;5.28;;;7.70;99.90;;;;;;5067419;28;20543;-64
2022/11/23 09:45:51;;;;;;;4.35;2.15;;;7.80;99.90;;;;;;5050450;28;20561;-64
2022/11/23 09:48:30;;;;;;;8.07;3.67;;;7.90;99.90;;;;;;5051533;28;20224;-65
2022/11/23 09:51:04;;;;;;;8.90;3.88;;;7.80;99.90;;;;;;5052819;28;20203;-64
2022/11/23 09:53:39;;;;;;;4.45;2.55;;;7.70;99.90;;;;;;5054636;28;20215;-65
2022/11/23 09:56:17;;;;;;;4.68;2.25;;;7.80;99.90;;;;;;5054655;28;20192;-64
2022/11/23 09:58:45;;;;;;;6.53;2.78;;;7.80;99.90;;;;;;5054383;28;20192;-64
2022/11/23 10:01:15;;;;;;;8.23;4.70;;;7.90;99.90;;;;;;5054153;28;20209;-64
2022/11/23 10:03:44;;;;;;;6.38;3.35;;;8.10;99.90;;;;;;5053243;28;20204;-64
2022/11/23 10:06:18;;;;;;;15.15;7.07;;;8.20;99.90;;;;;;5059003;28;20535;-64
2022/11/23 10:08:59;;;;;;;6.80;2.40;;;8.20;99.90;;;;;;5063434;28;20202;-65
2022/11/23 10:11:40;;;;;;;9.68;4.30;;;8.30;99.90;;;;;;5054018;28;20251;-64
2022/11/23 10:14:23;;;;;;;5.25;2.85;;;8.30;99.90;;;;;;5054639;28;20561;-65
2022/11/23 10:16:58;;;;;;;5.07;1.80;;;8.30;99.90;;;;;;5055188;28;20184;-65
2022/11/23 10:19:41;;;;;;;10.00;2.33;;;8.30;99.90;;;;;;5069935;28;20662;-66
2022/11/23 10:22:16;;;;;;;2.65;2.17;;;8.50;99.90;;;;;;5058069;28;20208;-65
2022/11/23 10:24:49;;;;;;;5.68;2.30;;;8.50;99.90;;;;;;5054928;28;20184;-65
2022/11/23 10:27:19;;;;;;;6.45;2.65;;;8.60;99.90;;;;;;5053485;28;20254;-64
2022/11/23 10:29:47;;;;;;;4.88;2.15;;;8.60;99.90;;;;;;5062557;28;20232;-64
2022/11/23 10:36:00;;;;;;;10.90;2.67;;;9.00;99.90;;;;;;5053785;28;20241;-64
2022/11/23 10:38:31;;;;;;;7.50;2.50;;;9.40;99.90;;;;;;5075531;28;20692;-65
2022/11/23 10:41:04;;;;;;;16.80;3.20;;;9.70;99.90;;;;;;5059480;28;20201;-64
2022/11/23 10:43:43;;;;;;;11.13;3.30;;;9.90;99.90;;;;;;5053974;28;20185;-65
2022/11/23 10:46:30;;;;;;;5.60;2.25;;;10.00;99.90;;;;;;5052637;28;20639;-64
2022/11/23 10:49:16;;;;;;;4.40;2.50;;;10.20;99.90;;;;;;5054018;28;20208;-65
2022/11/23 10:51:53;;;;;;;6.50;2.92;;;10.00;99.90;;;;;;5057551;28;20216;-66
2022/11/23 10:54:47;;;;;;;5.63;2.22;;;10.10;99.90;;;;;;5062143;28;20204;-65
2022/11/23 10:57:31;;;;;;;5.65;2.10;;;10.20;99.90;;;;;;5056882;28;20185;-65
2022/11/23 11:00:01;;;;;;;2.75;2.15;;;10.10;99.90;;;;;;5052214;28;20892;-65
2022/11/23 11:02:29;;;;;;;4.93;1.80;;;10.30;99.90;;;;;;5058603;28;20203;-66
2022/11/23 11:05:13;;;;;;;3.03;2.35;;;10.40;99.90;;;;;;5065128;28;20200;-65
2022/11/23 11:07:41;;;;;;;4.40;2.90;;;10.70;99.90;;;;;;5054264;28;20213;-65
2022/11/23 11:10:35;;;;;;;3.30;1.80;;;11.00;99.90;;;;;;5052651;28;20594;-65
2022/11/23 11:13:24;;;;;;;6.73;2.80;;;11.60;99.90;;;;;;5053209;28;20565;-66
2022/11/23 11:15:58;;;;;;;3.37;2.17;;;11.60;99.90;;;;;;5062990;28;20606;-65
2022/11/23 11:18:31;;;;;;;3.80;2.40;;;11.90;99.90;;;;;;5056291;28;20603;-65
2022/11/23 11:21:03;;;;;;;5.20;2.90;;;12.10;99.90;;;;;;5065830;28;20610;-65
2022/11/23 11:23:32;;;;;;;4.47;3.17;;;12.20;99.90;;;;;;5073433;28;20587;-65
2022/11/23 11:26:13;;;;;;;9.10;3.37;;;11.70;99.90;;;;;;5071112;28;21199;-66
2022/11/23 11:28:47;;;;;;;4.13;3.73;;;11.70;99.90;;;;;;5072997;28;21248;-66
2022/11/23 11:31:35;;;;;;;13.80;5.37;;;11.90;99.90;;;;;;5051950;28;20594;-66
2022/11/23 11:34:13;;;;;;;9.17;4.10;;;12.30;99.90;;;;;;5052873;28;20978;-66
2022/11/23 11:36:45;;;;;;;4.70;3.40;;;12.60;99.90;;;;;;5051407;28;20630;-65
2022/11/23 11:39:16;;;;;;;5.57;3.60;;;12.50;99.90;;;;;;5057297;28;20622;-65
2022/11/23 11:41:46;;;;;;;5.97;4.00;;;12.40;99.90;;;;;;5051960;28;20983;-65
2022/11/23 11:44:19;;;;;;;8.83;5.00;;;12.70;99.90;;;;;;5054230;28;20629;-65
2022/11/23 11:46:52;;;;;;;5.27;3.73;;;13.10;99.90;;;;;;5062668;28;20625;-66
2022/11/23 11:49:25;;;;;;;5.73;4.50;;;13.00;99.90;;;;;;5061039;28;20703;-66
2022/11/23 11:51:56;;;;;;;4.20;3.80;;;13.10;99.90;;;;;;5058194;28;20611;-66
2022/11/23 11:54:31;;;;;;;8.23;4.90;;;13.60;99.90;;;;;;5052879;28;20592;-65
2022/11/23 11:57:03;;;;;;;6.47;4.30;;;13.40;99.90;;;;;;5061811;28;20611;-65
2022/11/23 11:59:41;;;;;;;7.60;5.07;;;13.90;99.90;;;;;;5055426;28;21012;-65
2022/11/23 12:02:20;;;;;;;6.93;4.17;;;13.60;99.90;;;;;;5056146;28;20978;-66
2022/11/23 12:04:57;;;;;;;5.93;4.50;;;13.10;99.90;;;;;;5059632;28;20619;-66
2022/11/23 12:07:30;;;;;;;4.60;4.10;;;13.00;99.90;;;;;;5058837;28;21174;-66
2022/11/23 12:10:05;;;;;;;7.30;4.30;;;13.20;99.90;;;;;;5049818;28;20960;-66
2022/11/23 12:12:36;;;;;;;4.33;3.80;;;13.50;99.90;;;;;;5056032;28;21290;-66
2022/11/23 12:15:12;;;;;;;5.90;4.30;;;13.90;99.90;;;;;;5058867;28;20959;-66
2022/11/23 12:17:56;;;;;;;8.17;4.70;;;14.10;99.90;;;;;;5059766;28;20580;-66
2022/11/23 12:20:30;;;;;;;8.37;4.30;;;13.90;99.90;;;;;;5049269;28;20626;-66
2022/11/23 12:23:09;;;;;;;4.97;4.00;;;13.70;99.90;;;;;;5061997;28;20622;-66
2022/11/23 12:25:41;;;;;;;6.20;5.30;;;13.80;99.90;;;;;;5058667;28;20614;-66
2022/11/23 12:28:31;;;;;;;8.37;4.70;;;14.00;99.90;;;;;;5058589;28;20671;-66
2022/11/23 12:31:12;;;;;;;6.60;4.77;;;13.90;99.90;;;;;;5053032;28;20603;-66
2022/11/23 12:34:03;;;;;;;4.90;4.47;;;14.10;99.90;;;;;;5049829;28;20679;-66
2022/11/23 12:36:49;;;;;;;5.30;4.90;;;13.80;99.90;;;;;;5060243;28;20972;-66
2022/11/23 12:39:32;;;;;;;5.83;5.33;;;13.80;99.90;;;;;;5060438;28;20623;-66
2022/11/23 12:42:07;;;;;;;6.67;5.00;;;14.20;99.90;;;;;;5048945;28;20607;-66
2022/11/23 12:44:58;;;;;;;8.43;5.60;;;14.60;99.90;;;;;;5048642;28;20602;-66
2022/11/23 12:47:40;;;;;;;6.80;6.20;;;14.10;99.90;;;;;;5061053;28;20607;-65
2022/11/23 12:50:20;;;;;;;5.77;5.47;;;14.00;99.90;;;;;;5066118;28;20632;-66
2022/11/23 12:53:07;;;;;;;5.53;5.23;;;14.70;99.90;;;;;;5060557;28;20648;-66
2022/11/23 12:55:43;;;;;;;7.40;6.30;;;14.20;99.90;;;;;;5059630;28;20668;-66
2022/11/23 12:58:21;;;;;;;6.63;6.13;;;14.60;99.90;;;;;;5064956;28;21204;-66
2022/11/23 13:00:52;;;;;;;6.13;5.80;;;14.70;99.90;;;;;;5055879;28;20614;-66
2022/11/23 13:03:56;;;;;;;5.13;4.93;;;14.40;99.90;;;;;;5070894;28;20625;-66
2022/11/23 13:06:48;;;;;;;6.90;6.37;;;14.70;99.90;;;;;;5061389;28;20630;-66
2022/11/23 13:09:35;;;;;;;39.40;19.73;;;14.90;99.90;;;;;;5054084;28;21005;-66
2022/11/23 13:12:33;;;;;;;22.30;14.37;;;15.30;99.90;;;;;;5051970;28;20651;-66
2022/11/23 13:15:16;;;;;;;13.67;7.20;;;15.30;99.90;;;;;;5053294;28;20630;-66
2022/11/23 13:17:52;;;;;;;10.87;9.97;;;14.70;99.90;;;;;;5056040;28;20621;-66
2022/11/23 13:20:49;;;;;;;9.17;7.40;;;14.20;99.90;;;;;;5060476;28;20618;-66
2022/11/23 13:23:20;;;;;;;6.60;5.97;;;13.30;99.90;;;;;;5058161;28;20631;-66
2022/11/23 13:26:13;;;;;;;8.37;7.50;;;12.60;99.90;;;;;;5058076;28;21198;-66
2022/11/23 13:28:41;;;;;;;10.17;7.20;;;12.40;99.90;;;;;;5052025;28;20766;-66